Shawnee Hills, Ohio
Current Conditions -  °F | °C
As of 2:53 PM on Saturday 20 Dec 2014 (Local Time) from KOSU Reporting Station
Overcast Overcast  
Wind Chill: 24°   Ceiling: 1700
Heat Index: 30°   Visibility: 7mi
Dew Point: 23°   Wind: 6mph
Humidity: 75%   Direction: 290°WNW
Pressure: 30.24"   Gusts: NA
Location:  40.1701°N, 83.0808°W
Report Text: KOSU 201953Z 29005KT 7SM OVC017 M01/M05 A3024 RMK AO2 SLP252 T10111050
Loading
Personal Weather Stations






























Interactive Weather Map New forecast layout! Learn more

10-Day Weather Forecast

Advertisements
Track Severe Weather on mobile